Time;durP1;ratioP1;P1;durP2;ratioP2;P2;SDS_P1;SDS_P2;PMS_P1;PMS_P2;Temp;Humidity;BMP_temperature;BMP_pressure;BME280_temperature;BME280_humidity;BME280_pressure;Samples;Min_cycle;Max_cycle;Signal;HPM_P1;HPM_P2
2021/09/12 00:01:00;;;;;;;17.45;9.50;;;;;;;13.46;91.11;100969.56;1876644;76;21015;-64
2021/09/12 00:03:29;;;;;;;16.05;9.05;;;;;;;13.46;91.16;100969.56;1876611;76;21055;-63
2021/09/12 00:05:58;;;;;;;19.25;9.60;;;;;;;13.44;91.16;100967.42;1876592;76;21059;-64
2021/09/12 00:08:27;;;;;;;16.30;9.48;;;;;;;13.44;91.12;100963.45;1876601;76;21104;-63
2021/09/12 00:10:56;;;;;;;37.60;17.70;;;;;;;13.40;91.19;100963.69;1876648;76;21043;-63
2021/09/12 00:13:24;;;;;;;275.93;126.27;;;;;;;13.37;91.37;100958.09;1876745;76;21493;-64
2021/09/12 00:15:53;;;;;;;124.33;57.45;;;;;;;13.33;91.40;100964.43;1876535;75;21160;-63
2021/09/12 00:18:22;;;;;;;75.87;37.35;;;;;;;13.32;91.38;100966.70;1876792;76;21141;-64
2021/09/12 00:20:51;;;;;;;103.90;47.70;;;;;;;13.27;91.33;100973.95;1876522;76;21045;-64
2021/09/12 00:23:20;;;;;;;72.78;33.60;;;;;;;13.22;91.28;100973.30;1876714;76;21008;-63
2021/09/12 00:25:49;;;;;;;68.20;33.20;;;;;;;13.18;91.38;100972.58;1876764;76;21019;-63
2021/09/12 00:28:17;;;;;;;72.90;33.20;;;;;;;13.18;91.50;100971.73;1876643;76;21034;-63
2021/09/12 00:30:46;;;;;;;74.82;31.27;;;;;;;13.16;91.44;100971.80;1876611;76;21154;-64
2021/09/12 00:33:15;;;;;;;51.83;23.02;;;;;;;13.13;91.32;100972.81;1876538;76;21168;-63
2021/09/12 00:35:44;;;;;;;31.52;14.73;;;;;;;13.10;91.26;100972.94;1876544;76;21145;-64
2021/09/12 00:38:13;;;;;;;30.15;12.00;;;;;;;13.08;91.29;100977.45;1876621;76;21043;-64
2021/09/12 00:40:42;;;;;;;31.73;14.90;;;;;;;13.02;91.31;100971.12;1876812;76;21524;-63
2021/09/12 00:43:10;;;;;;;30.85;14.38;;;;;;;12.99;91.34;100975.22;1876612;76;21113;-64
2021/09/12 00:45:39;;;;;;;32.88;15.93;;;;;;;12.93;91.36;100967.58;1876536;76;21015;-63
2021/09/12 00:48:11;;;;;;;27.55;12.95;;;;;;;12.89;91.42;100967.30;1876722;76;21051;-62
2021/09/12 00:50:40;;;;;;;21.52;10.20;;;;;;;12.88;91.55;100970.89;1876609;76;21105;-62
2021/09/12 00:53:09;;;;;;;27.02;12.55;;;;;;;12.89;91.62;100978.75;1876579;75;21050;-62
2021/09/12 00:55:39;;;;;;;29.72;13.90;;;;;;;12.89;91.62;100968.63;1876610;76;21478;-63
2021/09/12 00:58:09;;;;;;;28.85;12.65;;;;;;;12.88;91.59;100968.25;1876615;76;21035;-62
2021/09/12 01:00:37;;;;;;;34.40;17.80;;;;;;;12.84;91.60;100962.23;1876588;76;21466;-62
2021/09/12 01:03:06;;;;;;;39.25;15.55;;;;;;;12.83;91.58;100967.59;1876539;76;21122;-62
2021/09/12 01:05:35;;;;;;;33.65;13.70;;;;;;;12.79;91.58;100964.70;1876608;76;21055;-62
2021/09/12 01:08:04;;;;;;;41.05;14.80;;;;;;;12.75;91.63;100956.89;1876583;76;21036;-63
2021/09/12 01:10:33;;;;;;;45.52;18.62;;;;;;;12.72;91.56;100958.81;1876642;76;21012;-62
2021/09/12 01:13:02;;;;;;;70.75;33.83;;;;;;;12.68;91.63;100966.02;1876513;76;21095;-62
2021/09/12 01:15:31;;;;;;;50.73;25.45;;;;;;;12.67;91.72;100963.44;1876587;76;21051;-62
2021/09/12 01:18:00;;;;;;;28.42;14.65;;;;;;;12.63;91.79;100958.75;1876604;76;21031;-62
2021/09/12 01:20:29;;;;;;;46.30;17.55;;;;;;;12.62;91.81;100954.88;1876667;75;21121;-62
2021/09/12 01:22:57;;;;;;;33.73;9.60;;;;;;;12.58;91.79;100952.83;1876648;76;21101;-62
2021/09/12 01:25:27;;;;;;;37.38;9.55;;;;;;;12.57;91.81;100959.50;1876469;76;21176;-61
2021/09/12 01:27:55;;;;;;;25.20;8.33;;;;;;;12.54;91.79;100961.79;1876569;76;21121;-62
2021/09/12 01:30:24;;;;;;;29.40;6.90;;;;;;;12.52;91.71;100957.05;1876546;76;21063;-62
2021/09/12 01:32:53;;;;;;;24.98;8.65;;;;;;;12.49;91.67;100958.52;1876582;76;21043;-61
2021/09/12 01:35:21;;;;;;;17.23;8.43;;;;;;;12.46;91.64;100963.45;1876680;76;21061;-62
2021/09/12 01:37:50;;;;;;;17.70;8.45;;;;;;;12.42;91.73;100965.84;1876421;75;21067;-62
2021/09/12 01:40:19;;;;;;;15.53;7.70;;;;;;;12.40;91.85;100969.01;1876582;76;21054;-62
2021/09/12 01:42:48;;;;;;;22.07;8.73;;;;;;;12.37;91.95;100961.20;1876554;76;21097;-62
2021/09/12 01:45:17;;;;;;;19.85;10.03;;;;;;;12.36;92.08;100955.08;1876637;76;21047;-62
2021/09/12 01:47:46;;;;;;;33.40;15.18;;;;;;;12.37;92.13;100955.92;1876470;76;21089;-62
2021/09/12 01:50:17;;;;;;;47.80;20.48;;;;;;;12.35;92.23;100953.34;1876593;76;21101;-63
2021/09/12 01:52:45;;;;;;;26.95;11.65;;;;;;;12.33;92.30;100956.52;1876562;76;21473;-61
2021/09/12 01:55:14;;;;;;;23.12;9.43;;;;;;;12.30;92.47;100959.31;1876564;76;21059;-62
2021/09/12 01:57:43;;;;;;;22.98;10.20;;;;;;;12.27;92.43;100950.19;1876569;76;21133;-63
2021/09/12 02:00:12;;;;;;;22.32;10.38;;;;;;;12.25;92.44;100952.05;1876677;76;21035;-62
2021/09/12 02:02:41;;;;;;;18.42;8.80;;;;;;;12.24;92.46;100950.31;1876550;75;21031;-62
2021/09/12 02:05:10;;;;;;;19.55;8.78;;;;;;;12.23;92.43;100948.61;1876516;76;21106;-62
2021/09/12 02:07:39;;;;;;;23.83;11.85;;;;;;;12.21;92.46;100944.30;1876706;76;21132;-62
2021/09/12 02:10:09;;;;;;;46.42;27.98;;;;;;;12.21;92.51;100940.34;1876697;76;21063;-62
2021/09/12 02:12:37;;;;;;;23.80;12.63;;;;;;;12.22;92.57;100948.20;1876792;76;21109;-70
2021/09/12 02:15:07;;;;;;;18.45;9.15;;;;;;;12.22;92.57;100941.60;1876757;76;21054;-62
2021/09/12 02:17:36;;;;;;;22.05;8.88;;;;;;;12.22;92.55;100939.44;1876591;75;21161;-61
2021/09/12 02:20:05;;;;;;;23.73;13.03;;;;;;;12.21;92.62;100937.70;1876821;76;21019;-62
2021/09/12 02:22:34;;;;;;;19.07;10.55;;;;;;;12.21;92.63;100940.34;1876724;75;21124;-62
2021/09/12 02:25:03;;;;;;;18.80;9.03;;;;;;;12.22;92.69;100945.56;1876626;76;21125;-62
2021/09/12 02:27:32;;;;;;;24.32;10.23;;;;;;;12.24;92.69;100947.67;1876790;76;21039;-62
2021/09/12 02:30:00;;;;;;;23.07;11.75;;;;;;;12.25;92.68;100942.80;1876591;75;21158;-63
2021/09/12 02:32:29;;;;;;;20.40;9.55;;;;;;;12.25;92.74;100943.27;1876711;76;21071;-62
2021/09/12 02:34:58;;;;;;;17.98;8.10;;;;;;;12.25;92.75;100941.48;1876909;76;21047;-62
2021/09/12 02:37:27;;;;;;;23.60;8.55;;;;;;;12.26;92.79;100937.90;1876677;75;21094;-62
2021/09/12 02:39:57;;;;;;;23.87;9.70;;;;;;;12.26;92.79;100939.69;1876667;76;21373;-62
2021/09/12 02:42:25;;;;;;;26.12;9.10;;;;;;;12.25;92.79;100936.20;1876775;76;21106;-62
2021/09/12 02:44:54;;;;;;;12.07;5.87;;;;;;;12.23;92.79;100939.38;1876621;76;21011;-62
2021/09/12 02:47:23;;;;;;;17.35;6.28;;;;;;;12.23;92.81;100942.02;1876672;76;21124;-62
2021/09/12 02:49:52;;;;;;;23.65;9.23;;;;;;;12.23;92.86;100939.38;1876638;76;21063;-62
2021/09/12 02:52:20;;;;;;;19.77;7.85;;;;;;;12.25;92.88;100938.84;1876653;75;21051;-61
2021/09/12 02:54:49;;;;;;;18.70;7.55;;;;;;;12.24;92.87;100935.80;1876759;76;21120;-62
2021/09/12 02:57:18;;;;;;;28.57;10.03;;;;;;;12.27;92.91;100929.07;1876754;76;21101;-62
2021/09/12 02:59:46;;;;;;;41.85;16.60;;;;;;;12.29;92.95;100932.50;1876660;76;21039;-62
2021/09/12 03:02:15;;;;;;;29.25;11.00;;;;;;;12.34;92.99;100927.03;1876717;76;21137;-62
2021/09/12 03:04:44;;;;;;;17.45;8.80;;;;;;;12.37;92.99;100937.45;1876750;76;21053;-62
2021/09/12 03:07:12;;;;;;;17.62;8.45;;;;;;;12.40;92.97;100937.80;1876663;76;21063;-61
2021/09/12 03:09:41;;;;;;;20.85;9.28;;;;;;;12.42;93.01;100925.37;1876532;76;21527;-62
2021/09/12 03:12:10;;;;;;;18.17;8.75;;;;;;;12.45;93.02;100931.82;1876677;75;21072;-61
2021/09/12 03:14:39;;;;;;;18.12;8.00;;;;;;;12.48;93.00;100931.70;1876624;76;21047;-62
2021/09/12 03:17:08;;;;;;;13.68;6.92;;;;;;;12.52;93.00;100930.63;1876671;75;21090;-62
2021/09/12 03:19:37;;;;;;;12.43;6.58;;;;;;;12.57;92.95;100930.44;1876765;76;21035;-61
2021/09/12 03:22:06;;;;;;;16.32;9.38;;;;;;;12.61;92.90;100927.58;1876524;76;21117;-61
2021/09/12 03:24:35;;;;;;;16.57;7.90;;;;;;;12.63;92.90;100929.69;1876606;76;21572;-62
2021/09/12 03:27:04;;;;;;;27.55;13.38;;;;;;;12.68;92.92;100929.03;1876610;76;21121;-61
2021/09/12 03:29:33;;;;;;;13.15;7.40;;;;;;;12.74;92.91;100931.41;1876764;76;21027;-61
2021/09/12 03:32:02;;;;;;;18.37;8.33;;;;;;;12.81;92.89;100928.48;1876626;76;21007;-62
2021/09/12 03:34:30;;;;;;;14.18;8.15;;;;;;;12.86;92.85;100927.81;1876544;76;21105;-63
2021/09/12 03:36:59;;;;;;;14.53;7.62;;;;;;;12.96;92.78;100935.70;1876663;76;21028;-62
2021/09/12 03:39:28;;;;;;;15.85;7.67;;;;;;;13.08;92.69;100937.80;1876736;76;21517;-62
2021/09/12 03:41:57;;;;;;;11.40;6.75;;;;;;;13.22;92.53;100931.00;1876769;76;21043;-61
2021/09/12 03:44:25;;;;;;;13.43;6.87;;;;;;;13.29;92.35;100932.42;1876646;76;21529;-61
2021/09/12 03:46:54;;;;;;;18.05;8.18;;;;;;;13.29;92.22;100929.78;1876641;76;21051;-62
2021/09/12 03:49:22;;;;;;;14.53;8.08;;;;;;;13.41;92.15;100938.94;1876765;76;21129;-62
2021/09/12 03:51:51;;;;;;;18.07;10.32;;;;;;;13.64;91.98;100929.91;1876597;76;21113;-62
2021/09/12 03:54:20;;;;;;;20.77;11.78;;;;;;;13.89;91.83;100933.06;1876649;76;21129;-61
2021/09/12 03:56:50;;;;;;;14.90;8.85;;;;;;;14.18;91.75;100929.88;1876740;76;21101;-61
2021/09/12 03:59:18;;;;;;;14.75;7.97;;;;;;;14.44;91.57;100933.38;1876635;76;21090;-61
2021/09/12 04:01:47;;;;;;;19.02;10.43;;;;;;;14.59;91.28;100936.16;1876540;76;21059;-61
2021/09/12 04:04:16;;;;;;;12.70;6.60;;;;;;;14.69;91.06;100933.91;1876627;75;21024;-62
2021/09/12 04:06:44;;;;;;;9.75;5.70;;;;;;;14.79;90.84;100936.44;1876698;76;21478;-62
2021/09/12 04:09:13;;;;;;;9.93;5.45;;;;;;;14.83;90.72;100939.33;1876571;76;21060;-62
2021/09/12 04:11:42;;;;;;;13.68;6.60;;;;;;;14.97;90.57;100932.79;1876896;76;21031;-61
2021/09/12 04:14:11;;;;;;;21.00;11.83;;;;;;;15.07;90.31;100939.80;1876546;76;21035;-62
2021/09/12 04:16:40;;;;;;;26.87;17.10;;;;;;;15.09;90.12;100928.63;1876610;75;21513;-62
2021/09/12 04:19:09;;;;;;;24.30;16.45;;;;;;;15.17;89.92;100929.05;1875920;76;21668;-63
2021/09/12 04:21:37;;;;;;;36.28;25.65;;;;;;;15.37;89.77;100927.94;1894516;75;21027;-63
2021/09/12 04:24:07;;;;;;;38.42;27.42;;;;;;;15.66;89.51;100930.76;1919105;75;21024;-64
2021/09/12 04:26:35;;;;;;;37.48;25.65;;;;;;;15.92;89.11;100923.97;1901602;74;21105;-64
2021/09/12 04:29:04;;;;;;;35.88;20.02;;;;;;;16.19;88.22;100923.27;1883251;75;21509;-63
2021/09/12 04:31:33;;;;;;;28.65;17.05;;;;;;;16.51;87.61;100921.34;1910808;75;21035;-67
2021/09/12 04:34:02;;;;;;;26.95;12.23;;;;;;;16.89;87.34;100928.77;1879271;76;21058;-66
2021/09/12 04:36:31;;;;;;;20.32;9.58;;;;;;;17.16;86.45;100922.18;1894413;75;21043;-63
2021/09/12 04:39:00;;;;;;;16.42;9.85;;;;;;;17.47;85.93;100920.70;1919001;75;21004;-63
2021/09/12 04:41:29;;;;;;;21.05;9.13;;;;;;;17.81;85.32;100916.64;1918519;75;21176;-63
2021/09/12 04:43:58;;;;;;;11.88;6.40;;;;;;;18.12;84.72;100912.80;1919033;75;21024;-62
2021/09/12 04:46:27;;;;;;;10.95;6.00;;;;;;;18.29;82.91;100918.80;1908009;75;21101;-65
2021/09/12 04:48:56;;;;;;;11.25;5.20;;;;;;;18.47;82.98;100909.53;1886098;75;21075;-64
2021/09/12 04:51:26;;;;;;;12.55;5.00;;;;;;;18.77;82.57;100918.16;1886278;76;21120;-66
2021/09/12 04:53:55;;;;;;;11.60;6.60;;;;;;;18.97;81.27;100908.77;1886071;75;21446;-66
2021/09/12 04:56:24;;;;;;;13.13;5.00;;;;;;;19.02;79.08;100910.64;1886095;76;21543;-66
2021/09/12 04:58:53;;;;;;;10.63;5.08;;;;;;;19.19;78.30;100910.25;1886222;76;21466;-66
2021/09/12 05:01:22;;;;;;;10.58;5.87;;;;;;;19.31;76.88;100913.86;1886106;76;21109;-66
2021/09/12 05:03:52;;;;;;;9.70;5.62;;;;;;;19.33;74.96;100911.94;1886084;76;21072;-65
2021/09/12 05:06:20;;;;;;;13.25;5.83;;;;;;;19.35;74.05;100912.67;1885952;76;21200;-67
2021/09/12 05:08:49;;;;;;;16.37;5.97;;;;;;;19.50;74.35;100908.02;1886194;76;21078;-67
2021/09/12 05:11:18;;;;;;;12.18;5.83;;;;;;;19.89;75.11;100909.19;1886079;76;21196;-64
2021/09/12 05:13:50;;;;;;;10.72;6.22;;;;;;;20.35;74.97;100905.66;1885467;76;21011;-74
2021/09/12 05:16:17;;;;;;;11.97;5.37;;;;;;;20.86;74.84;100910.59;1895292;75;21117;-70
2021/09/12 05:18:46;;;;;;;8.65;5.47;;;;;;;21.30;73.55;100906.62;1916387;75;21040;-69
2021/09/12 05:21:15;;;;;;;11.33;4.20;;;;;;;21.64;72.43;100910.59;1897568;75;21121;-63
2021/09/12 05:23:44;;;;;;;9.88;5.17;;;;;;;21.89;71.26;100906.69;1905513;75;21024;-68
2021/09/12 05:26:13;;;;;;;9.08;5.00;;;;;;;22.05;70.71;100907.09;1905985;75;21055;-71
2021/09/12 05:28:42;;;;;;;7.53;3.95;;;;;;;22.34;70.47;100906.47;1906318;75;21102;-75
2021/09/12 05:31:11;;;;;;;8.73;4.20;;;;;;;22.67;69.02;100906.72;1903689;75;21063;-66
2021/09/12 05:33:39;;;;;;;9.18;4.10;;;;;;;23.01;68.63;100905.06;1897926;75;21140;-67
2021/09/12 05:36:09;;;;;;;15.60;5.08;;;;;;;23.36;67.69;100902.92;1897740;75;21129;-70
2021/09/12 05:38:38;;;;;;;7.37;3.90;;;;;;;23.81;67.39;100904.63;1897744;75;21089;-67
2021/09/12 05:41:07;;;;;;;7.62;3.77;;;;;;;24.30;66.41;100909.08;1891000;75;21036;-67
2021/09/12 05:43:35;;;;;;;7.35;3.62;;;;;;;24.64;65.45;100904.91;1864630;77;21184;-69
2021/09/12 05:46:04;;;;;;;9.35;4.30;;;;;;;24.81;63.32;100905.13;1864386;77;21208;-70
2021/09/12 05:48:33;;;;;;;7.15;3.35;;;;;;;25.02;62.78;100904.36;1864469;77;21125;-68
2021/09/12 05:51:03;;;;;;;9.58;4.55;;;;;;;25.41;62.45;100903.30;1864854;75;21008;-68
2021/09/12 05:53:31;;;;;;;6.55;3.72;;;;;;;25.55;59.95;100902.77;1864561;77;21064;-69
2021/09/12 05:56:00;;;;;;;6.25;3.58;;;;;;;25.71;59.46;100899.88;1864954;75;21169;-65
2021/09/12 05:58:29;;;;;;;6.42;3.67;;;;;;;25.79;58.36;100905.36;1864524;77;21083;-65
2021/09/12 06:00:58;;;;;;;7.83;3.42;;;;;;;26.00;58.33;100906.39;1864741;75;21102;-62
2021/09/12 06:03:27;;;;;;;7.22;3.62;;;;;;;26.27;57.73;100905.93;1864504;77;21557;-61
2021/09/12 06:05:56;;;;;;;8.15;3.52;;;;;;;26.33;56.46;100907.47;1864653;75;21131;-61
2021/09/12 06:08:24;;;;;;;5.90;3.72;;;;;;;26.54;56.62;100907.11;1864513;77;21048;-62
2021/09/12 06:10:53;;;;;;;7.37;3.70;;;;;;;26.91;56.53;100914.08;1864577;76;21051;-62
2021/09/12 06:13:25;;;;;;;9.58;3.80;;;;;;;27.14;55.79;100913.47;1864539;77;21060;-62
2021/09/12 06:15:53;;;;;;;7.12;3.98;;;;;;;27.37;55.96;100914.23;1864508;76;21040;-63
2021/09/12 06:18:22;;;;;;;7.80;3.80;;;;;;;27.73;55.05;100912.94;1864531;76;21450;-62
2021/09/12 06:20:50;;;;;;;6.12;3.62;;;;;;;28.10;54.37;100914.83;1864422;75;21189;-62
2021/09/12 06:23:19;;;;;;;10.00;3.85;;;;;;;28.30;53.20;100921.57;1864066;76;21152;-68
2021/09/12 06:25:48;;;;;;;7.47;3.60;;;;;;;28.44;52.43;100920.52;1864703;75;21129;-66
2021/09/12 06:28:17;;;;;;;4.65;3.58;;;;;;;28.58;51.92;100924.42;1864494;77;21036;-65
2021/09/12 06:30:46;;;;;;;9.50;3.47;;;;;;;28.78;51.28;100923.52;1864736;75;21527;-66
2021/09/12 06:33:14;;;;;;;6.55;3.67;;;;;;;28.97;50.64;100928.52;1866873;75;21236;-68
2021/09/12 06:35:43;;;;;;;7.00;3.58;;;;;;;29.30;50.04;100929.74;1897644;75;21036;-68
2021/09/12 06:38:12;;;;;;;9.08;3.50;;;;;;;29.49;49.80;100927.59;1897863;75;21036;-65
2021/09/12 06:40:41;;;;;;;10.03;3.67;;;;;;;29.63;49.38;100933.09;1898185;75;21028;-62
2021/09/12 06:43:10;;;;;;;8.58;3.30;;;;;;;29.56;49.04;100930.76;1906430;75;21533;-63
2021/09/12 06:45:39;;;;;;;8.55;3.10;;;;;;;29.50;48.93;100939.63;1906042;75;21466;-64
2021/09/12 06:48:08;;;;;;;8.65;3.15;;;;;;;29.42;48.27;100942.41;1906385;75;21439;-63
2021/09/12 06:50:37;;;;;;;4.20;3.10;;;;;;;29.52;48.47;100936.22;1906380;75;21115;-62
2021/09/12 06:53:05;;;;;;;13.13;3.40;;;;;;;29.68;48.09;100937.12;1906435;75;21543;-62
2021/09/12 06:55:34;;;;;;;6.65;3.05;;;;;;;30.00;47.36;100935.55;1906344;75;21125;-63
2021/09/12 06:58:03;;;;;;;8.60;2.83;;;;;;;30.30;46.68;100930.70;1906506;74;21047;-66
2021/09/12 07:00:32;;;;;;;6.37;2.98;;;;;;;30.48;46.02;100926.31;1906474;75;21103;-67
2021/09/12 07:03:01;;;;;;;4.90;3.40;;;;;;;30.46;45.41;100929.20;1906248;75;21520;-69
2021/09/12 07:05:32;;;;;;;6.65;3.50;;;;;;;30.52;44.60;100924.90;1906397;74;21095;-68
2021/09/12 07:08:04;;;;;;;11.35;4.08;;;;;;;30.84;44.96;100926.41;1906338;75;21565;-68
2021/09/12 07:10:34;;;;;;;8.90;3.47;;;;;;;31.20;44.52;100924.78;1905929;74;21067;-68
2021/09/12 07:13:03;;;;;;;9.15;3.33;;;;;;;31.43;43.61;100924.11;1906399;75;21040;-68
2021/09/12 07:15:32;;;;;;;10.50;3.50;;;;;;;31.73;42.86;100921.30;1906289;75;21028;-68
2021/09/12 07:18:01;;;;;;;9.80;3.40;;;;;;;31.95;42.23;100923.48;1906402;75;21161;-68
2021/09/12 07:20:29;;;;;;;5.35;3.00;;;;;;;32.16;42.28;100934.89;1913388;74;21078;-68
2021/09/12 07:22:58;;;;;;;7.12;3.15;;;;;;;32.11;42.00;100927.82;1928754;74;21109;-66
2021/09/12 07:25:27;;;;;;;7.20;3.33;;;;;;;31.90;41.43;100932.23;1928759;74;21097;-66
2021/09/12 07:27:56;;;;;;;7.72;3.25;;;;;;;31.84;41.36;100930.30;1928537;74;21497;-67
2021/09/12 07:30:25;;;;;;;6.95;3.45;;;;;;;31.77;41.26;100928.03;1928794;74;21047;-67
2021/09/12 07:32:54;;;;;;;4.95;3.20;;;;;;;31.95;40.99;100923.48;1928872;74;21120;-67
2021/09/12 07:35:23;;;;;;;9.20;3.45;;;;;;;32.32;41.00;100927.78;1928750;73;21039;-67
2021/09/12 07:37:51;;;;;;;7.05;3.22;;;;;;;32.46;40.36;100925.14;1928749;74;21003;-68
2021/09/12 07:40:20;;;;;;;7.67;3.33;;;;;;;32.57;40.30;100925.94;1928639;74;21094;-68
2021/09/12 07:42:49;;;;;;;7.62;3.35;;;;;;;32.91;39.72;100921.55;1928714;74;21098;-67
2021/09/12 07:45:17;;;;;;;6.72;3.47;;;;;;;33.20;39.13;100923.67;1928757;74;21043;-68
2021/09/12 07:47:46;;;;;;;5.85;3.08;;;;;;;33.43;39.26;100922.80;1928689;74;21047;-68
2021/09/12 07:50:15;;;;;;;5.47;2.60;;;;;;;33.59;38.84;100920.22;1928737;74;21559;-68
2021/09/12 07:52:44;;;;;;;7.15;2.70;;;;;;;33.75;38.26;100910.80;1928735;74;21043;-68
2021/09/12 07:55:19;;;;;;;8.83;3.00;;;;;;;33.94;37.88;100917.84;1928610;73;21039;-68
2021/09/12 07:57:45;;;;;;;5.83;3.00;;;;;;;33.98;37.54;100913.66;1927191;74;21051;-68
2021/09/12 08:00:15;;;;;;;5.05;2.70;;;;;;;34.30;36.73;100915.23;1928383;74;21559;-67
2021/09/12 08:02:44;;;;;;;5.33;2.90;;;;;;;34.47;36.65;100915.08;1928637;74;21023;-67
2021/09/12 08:05:13;;;;;;;4.95;2.50;;;;;;;34.71;36.31;100908.64;1928732;74;21550;-67
2021/09/12 08:07:42;;;;;;;8.55;3.40;;;;;;;34.80;36.36;100899.14;1928611;74;21281;-67
2021/09/12 08:10:11;;;;;;;4.90;3.22;;;;;;;35.00;36.11;100904.52;1928724;74;21046;-66
2021/09/12 08:12:40;;;;;;;8.08;3.50;;;;;;;35.00;35.22;100899.05;1928943;74;21065;-68
2021/09/12 08:15:09;;;;;;;6.17;3.67;;;;;;;34.95;35.56;100892.02;1928684;74;21003;-67
2021/09/12 08:17:38;;;;;;;7.40;3.33;;;;;;;35.13;35.33;100900.34;1928801;74;21034;-68
2021/09/12 08:20:08;;;;;;;3.52;2.55;;;;;;;34.48;36.24;100905.84;1928680;74;21015;-67
2021/09/12 08:22:37;;;;;;;9.75;5.85;;;;;;;34.21;35.87;100890.87;1928886;73;21059;-68
2021/09/12 08:25:07;;;;;;;11.73;6.25;;;;;;;34.15;35.67;100891.67;1928801;74;21087;-69
2021/09/12 08:27:35;;;;;;;7.47;3.67;;;;;;;34.39;35.49;100893.45;1928733;74;21031;-68
2021/09/12 08:30:06;;;;;;;9.73;4.10;;;;;;;34.28;36.83;100895.48;1928705;74;21097;-68
2021/09/12 08:32:35;;;;;;;6.80;3.90;;;;;;;34.58;36.60;100893.94;1928683;74;21031;-69
2021/09/12 08:35:04;;;;;;;5.55;3.50;;;;;;;35.06;35.90;100893.23;1928704;74;21140;-69
2021/09/12 08:37:34;;;;;;;5.28;3.75;;;;;;;35.42;35.62;100895.91;1928671;74;21035;-70
2021/09/12 08:40:04;;;;;;;9.13;4.05;;;;;;;35.67;35.13;100894.05;1928710;74;21108;-68
2021/09/12 08:42:33;;;;;;;5.35;2.98;;;;;;;35.89;35.24;100894.53;1928669;74;21564;-69
2021/09/12 08:45:03;;;;;;;4.80;3.33;;;;;;;36.22;34.17;100893.94;1928549;74;21118;-69
2021/09/12 08:47:33;;;;;;;8.05;3.20;;;;;;;35.20;34.17;100890.78;1928784;74;21110;-69
2021/09/12 08:50:03;;;;;;;7.65;3.60;;;;;;;33.55;35.91;100894.39;1928761;74;21478;-68
2021/09/12 08:52:31;;;;;;;8.23;3.50;;;;;;;32.35;37.85;100894.36;1928628;74;21508;-69
2021/09/12 08:55:00;;;;;;;7.03;3.85;;;;;;;32.12;38.88;100888.66;1928643;74;21042;-69
2021/09/12 08:57:30;;;;;;;10.90;4.08;;;;;;;32.55;38.44;100891.23;1928562;74;21039;-69
2021/09/12 08:59:58;;;;;;;6.33;3.30;;;;;;;32.08;39.40;100889.58;1928671;74;21010;-69
2021/09/12 09:02:28;;;;;;;16.32;4.42;;;;;;;31.53;40.15;100896.08;1928666;74;21101;-68
2021/09/12 09:05:04;;;;;;;8.53;4.03;;;;;;;31.72;40.33;100895.97;1928694;74;21035;-68
2021/09/12 09:07:34;;;;;;;4.97;3.30;;;;;;;32.17;39.48;100896.23;1928784;74;21063;-69
2021/09/12 09:10:05;;;;;;;7.28;4.00;;;;;;;31.79;40.23;100900.63;1928750;74;21515;-69
2021/09/12 09:12:41;;;;;;;6.42;4.37;;;;;;;31.16;41.13;100906.12;1928603;74;21043;-69
2021/09/12 09:15:20;;;;;;;5.92;4.10;;;;;;;31.38;41.42;100897.16;1928773;74;21031;-69
2021/09/12 09:17:51;;;;;;;7.05;3.37;;;;;;;31.82;40.74;100901.60;1929142;74;21007;-68
2021/09/12 09:20:30;;;;;;;8.33;3.40;;;;;;;31.13;41.10;100903.80;1928739;74;21110;-69
2021/09/12 09:22:59;;;;;;;11.08;3.40;;;;;;;30.33;42.03;100895.06;1921615;74;21143;-69
2021/09/12 09:25:34;;;;;;;7.10;4.00;;;;;;;29.76;43.42;100906.73;1919154;75;21117;-68
2021/09/12 09:28:10;;;;;;;9.00;3.83;;;;;;;29.33;44.81;100905.51;1917678;74;21031;-69
2021/09/12 09:31:02;;;;;;;5.50;3.47;;;;;;;28.96;45.49;100904.32;1919472;75;21004;-66
2021/09/12 09:33:31;;;;;;;5.33;3.55;;;;;;;28.60;45.98;100898.01;1919171;75;21110;-66
2021/09/12 09:36:07;;;;;;;9.28;3.70;;;;;;;28.47;46.38;100898.00;1919246;75;21097;-66
2021/09/12 09:38:40;;;;;;;4.92;3.02;;;;;;;29.08;45.22;100896.11;1919174;73;21040;-66
2021/09/12 09:41:11;;;;;;;9.50;3.45;;;;;;;30.61;43.44;100892.53;1919260;75;21474;-66
2021/09/12 09:43:43;;;;;;;6.47;4.25;;;;;;;31.83;41.36;100887.77;1919153;73;21086;-66
2021/09/12 09:46:29;;;;;;;10.30;4.22;;;;;;;32.62;39.85;100888.06;1919007;74;21082;-66
2021/09/12 09:49:00;;;;;;;6.80;3.20;;;;;;;33.13;39.01;100888.20;1903905;74;21039;-66
2021/09/12 09:51:29;;;;;;;7.70;3.40;;;;;;;33.30;37.74;100889.20;1919238;74;21004;-66
2021/09/12 09:53:59;;;;;;;4.40;2.65;;;;;;;33.20;37.01;100884.97;1919113;75;21039;-67
2021/09/12 09:56:30;;;;;;;6.22;3.87;;;;;;;33.22;36.22;100881.52;1919133;75;21125;-66
2021/09/12 09:59:00;;;;;;;4.83;2.80;;;;;;;33.35;36.67;100882.57;1919101;75;21032;-66
2021/09/12 10:01:30;;;;;;;6.22;3.05;;;;;;;33.53;35.71;100879.25;1919098;74;21007;-66
2021/09/12 10:03:59;;;;;;;4.17;2.65;;;;;;;33.40;35.09;100874.11;1919124;75;21490;-65
2021/09/12 10:06:29;;;;;;;4.60;2.90;;;;;;;33.02;35.13;100873.77;1919058;75;21462;-68
2021/09/12 10:08:58;;;;;;;8.90;3.58;;;;;;;32.90;35.66;100876.23;1919228;75;20991;-67
2021/09/12 10:11:28;;;;;;;3.60;2.55;;;;;;;32.87;35.90;100870.67;1919147;75;21113;-65
2021/09/12 10:13:59;;;;;;;4.20;3.22;;;;;;;32.97;35.30;100867.55;1919069;75;21508;-61
2021/09/12 10:16:28;;;;;;;3.67;2.55;;;;;;;32.94;35.21;100867.11;1918536;75;21012;-61
2021/09/12 10:18:57;;;;;;;3.60;2.65;;;;;;;33.00;34.85;100860.86;1919091;73;21877;-60
2021/09/12 10:21:30;;;;;;;5.17;2.80;;;;;;;32.72;34.14;100863.67;1908221;75;21109;-60
2021/09/12 10:24:04;;;;;;;6.40;3.15;;;;;;;32.56;35.00;100856.66;1893968;76;21140;-63
2021/09/12 10:26:40;;;;;;;5.78;2.80;;;;;;;32.62;34.69;100862.16;1894717;75;21051;-61
2021/09/12 10:29:52;;;;;;;3.33;2.52;;;;;;;32.41;34.50;100862.25;1895106;76;21116;-62
2021/09/12 10:32:34;;;;;;;3.77;2.87;;;;;;;32.47;34.70;100864.16;1894050;75;21035;-60
2021/09/12 10:35:21;;;;;;;3.37;2.45;;;;;;;32.41;34.45;100859.52;1895391;76;21058;-61
2021/09/12 10:38:11;;;;;;;4.40;2.75;;;;;;;32.16;35.27;100859.98;1921255;74;21125;-61
2021/09/12 10:40:53;;;;;;;3.70;3.00;;;;;;;31.93;36.08;100854.25;1928176;74;21105;-62
2021/09/12 10:43:31;;;;;;;3.77;2.85;;;;;;;31.84;37.19;100854.07;1928735;74;21079;-60
2021/09/12 10:46:09;;;;;;;4.75;3.00;;;;;;;32.18;36.80;100856.53;1928305;74;21031;-63
2021/09/12 10:48:40;;;;;;;4.37;2.77;;;;;;;32.54;36.69;100847.83;1928823;74;21540;-64
2021/09/12 10:51:20;;;;;;;4.45;3.10;;;;;;;32.18;36.46;100855.17;1928537;74;21035;-63
2021/09/12 10:54:00;;;;;;;5.78;3.92;;;;;;;31.68;36.36;100855.19;1928769;74;21109;-62
2021/09/12 10:56:34;;;;;;;4.78;2.95;;;;;;;30.97;37.17;100863.23;1926226;74;21082;-64
2021/09/12 10:59:11;;;;;;;4.75;3.12;;;;;;;30.60;37.95;100855.53;1897480;74;21019;-63
2021/09/12 11:01:42;;;;;;;4.65;3.35;;;;;;;30.73;38.72;100854.34;1888984;76;21034;-63
2021/09/12 11:04:12;;;;;;;5.17;2.75;;;;;;;30.51;38.94;100852.59;1888997;76;21046;-64
2021/09/12 11:06:53;;;;;;;4.60;3.20;;;;;;;30.06;39.01;100854.39;1888846;76;21562;-63
2021/09/12 11:09:22;;;;;;;4.55;2.80;;;;;;;29.69;39.75;100849.28;1887955;76;21500;-62
2021/09/12 11:11:56;;;;;;;3.50;2.92;;;;;;;29.20;40.22;100849.98;1888916;76;21026;-62
2021/09/12 11:14:26;;;;;;;3.60;2.80;;;;;;;28.70;40.58;100847.19;1888992;76;21474;-63
2021/09/12 11:16:57;;;;;;;5.15;3.60;;;;;;;28.35;41.28;100845.25;1888906;76;21602;-64
2021/09/12 11:19:25;;;;;;;4.35;2.90;;;;;;;28.05;42.36;100846.34;1887355;76;21055;-66
2021/09/12 11:21:54;;;;;;;2.92;2.62;;;;;;;28.08;43.30;100843.27;1889100;76;21046;-68
2021/09/12 11:24:28;;;;;;;3.52;2.90;;;;;;;28.17;42.61;100841.40;1872920;75;21204;-68
2021/09/12 11:27:04;;;;;;;2.92;2.33;;;;;;;28.17;43.07;100841.92;1867132;77;21470;-63
2021/09/12 11:29:36;;;;;;;3.80;2.42;;;;;;;28.25;42.96;100845.95;1867188;77;21105;-67
2021/09/12 11:32:10;;;;;;;5.58;3.20;;;;;;;28.10;42.94;100839.88;1867189;77;21059;-67